createdAt,value
2022-08-10T00:00:42.674Z,99.90
2022-08-10T00:03:14.146Z,99.90
2022-08-10T00:05:52.946Z,99.90
2022-08-10T00:08:24.077Z,99.90
2022-08-10T00:10:51.904Z,99.90
2022-08-10T00:13:24.437Z,99.90
2022-08-10T00:15:56.219Z,99.90
2022-08-10T00:18:35.297Z,99.90
2022-08-10T00:21:02.398Z,99.90
2022-08-10T00:23:34.516Z,99.90
2022-08-10T00:26:06.639Z,99.90
2022-08-10T00:28:39.035Z,99.90
2022-08-10T00:31:10.610Z,99.90
2022-08-10T00:33:42.090Z,99.90
2022-08-10T00:36:13.647Z,99.90
2022-08-10T00:38:45.057Z,99.90
2022-08-10T00:41:16.365Z,99.90
2022-08-10T00:43:47.690Z,99.90
2022-08-10T00:46:19.146Z,99.90
2022-08-10T00:49:00.272Z,99.90
2022-08-10T00:51:23.648Z,99.90
2022-08-10T00:53:56.733Z,99.90
2022-08-10T00:57:14.174Z,99.90
2022-08-10T00:59:01.787Z,99.90
2022-08-10T01:02:09.338Z,99.90
2022-08-10T01:04:36.707Z,99.90
2022-08-10T01:06:44.597Z,99.90
2022-08-10T01:09:19.425Z,99.90
2022-08-10T01:12:38.333Z,99.90
2022-08-10T01:14:31.119Z,99.90
2022-08-10T01:17:06.804Z,99.90
2022-08-10T01:19:44.282Z,99.90
2022-08-10T01:22:35.569Z,99.90
2022-08-10T01:25:23.132Z,99.90
2022-08-10T01:27:58.107Z,99.90
2022-08-10T01:30:31.620Z,99.90
2022-08-10T01:33:06.740Z,99.90
2022-08-10T01:35:41.272Z,99.90
2022-08-10T01:38:15.686Z,99.90
2022-08-10T01:40:50.629Z,99.90
2022-08-10T01:43:23.320Z,99.90
2022-08-10T01:45:57.968Z,99.90
2022-08-10T01:48:33.228Z,99.90
2022-08-10T01:51:14.901Z,99.90
2022-08-10T01:53:50.189Z,99.90
2022-08-10T01:56:24.727Z,99.90
2022-08-10T01:58:58.827Z,99.90
2022-08-10T02:01:33.364Z,99.90
2022-08-10T02:04:09.285Z,99.90
2022-08-10T02:06:43.271Z,99.90
2022-08-10T02:09:17.840Z,99.90
2022-08-10T02:12:06.070Z,99.90
2022-08-10T02:14:33.441Z,99.90
2022-08-10T02:17:03.893Z,99.90
2022-08-10T02:19:38.618Z,99.90
2022-08-10T02:22:35.745Z,99.90
2022-08-10T02:24:47.149Z,99.90
2022-08-10T02:27:20.206Z,99.90
2022-08-10T02:29:53.733Z,99.90
2022-08-10T02:32:36.564Z,99.90
2022-08-10T02:35:03.741Z,99.90
2022-08-10T02:37:37.158Z,99.90
2022-08-10T02:45:11.044Z,99.90
2022-08-10T02:45:18.652Z,99.90
2022-08-10T02:45:31.103Z,99.90
2022-08-10T02:48:01.365Z,99.90
2022-08-10T02:50:34.945Z,99.90
2022-08-10T02:53:09.619Z,99.90
2022-08-10T02:55:45.101Z,99.90
2022-08-10T02:58:20.143Z,99.90
2022-08-10T03:00:55.068Z,99.90
2022-08-10T03:03:29.403Z,99.90
2022-08-10T03:06:04.299Z,99.90
2022-08-10T03:08:38.664Z,99.90
2022-08-10T03:11:13.115Z,99.90
2022-08-10T03:13:47.859Z,99.90
2022-08-10T03:16:21.061Z,99.90
2022-08-10T03:18:54.031Z,99.90
2022-08-10T03:21:28.058Z,99.90
2022-08-10T03:24:02.516Z,99.90
2022-08-10T03:26:36.860Z,99.90
2022-08-10T03:29:11.437Z,99.90
2022-08-10T03:31:43.517Z,99.90
2022-08-10T03:34:22.284Z,99.90
2022-08-10T03:36:50.948Z,99.90
2022-08-10T03:39:22.470Z,99.90
2022-08-10T03:41:56.475Z,99.90
2022-08-10T03:44:30.811Z,99.90
2022-08-10T03:47:03.538Z,99.90
2022-08-10T03:49:39.410Z,99.90
2022-08-10T03:52:13.186Z,99.90
2022-08-10T03:54:45.679Z,99.90
2022-08-10T03:57:17.069Z,99.90
2022-08-10T03:59:49.422Z,99.90
2022-08-10T04:02:45.313Z,99.90
2022-08-10T04:05:16.198Z,99.90
2022-08-10T04:07:48.298Z,99.90
2022-08-10T04:10:19.708Z,99.90
2022-08-10T04:12:51.083Z,99.90
2022-08-10T04:15:25.024Z,99.90
2022-08-10T04:18:05.698Z,99.90
2022-08-10T04:20:34.645Z,99.90
2022-08-10T04:23:08.440Z,99.90
2022-08-10T04:25:41.013Z,99.90
2022-08-10T04:28:13.138Z,99.90
2022-08-10T04:30:48.087Z,99.90
2022-08-10T04:33:22.692Z,99.90
2022-08-10T04:35:55.189Z,99.90
2022-08-10T04:38:28.275Z,99.90
2022-08-10T04:41:00.035Z,99.90
2022-08-10T04:43:31.427Z,99.90
2022-08-10T04:46:02.928Z,99.90
2022-08-10T04:48:40.392Z,99.90
2022-08-10T04:51:08.115Z,99.90
2022-08-10T04:54:04.441Z,99.90
2022-08-10T04:56:13.994Z,99.90
2022-08-10T04:58:45.462Z,99.90
2022-08-10T05:01:19.711Z,99.90
2022-08-10T05:04:35.170Z,99.90
2022-08-10T05:06:23.250Z,99.90
2022-08-10T05:08:54.665Z,99.90
2022-08-10T05:11:26.123Z,99.90
2022-08-10T05:13:57.604Z,99.90
2022-08-10T05:16:32.296Z,99.90
2022-08-10T05:19:02.128Z,99.90
2022-08-10T05:22:02.937Z,99.90
2022-08-10T05:24:07.709Z,99.90
2022-08-10T05:27:01.154Z,99.90
2022-08-10T05:29:12.165Z,99.90
2022-08-10T05:31:44.052Z,99.90
2022-08-10T05:34:20.522Z,99.90
2022-08-10T05:36:49.306Z,99.90
2022-08-10T05:39:30.186Z,99.90
2022-08-10T05:41:55.957Z,99.90
2022-08-10T05:44:29.670Z,99.90
2022-08-10T05:47:01.120Z,99.90
2022-08-10T05:49:32.674Z,99.90
2022-08-10T05:52:04.202Z,99.90
2022-08-10T05:54:35.981Z,99.90
2022-08-10T05:57:07.840Z,99.40
2022-08-10T06:00:33.442Z,98.30
2022-08-10T06:02:31.310Z,97.00
2022-08-10T06:04:56.216Z,96.10
2022-08-10T06:07:29.199Z,95.60
2022-08-10T06:10:02.048Z,95.30
2022-08-10T06:12:53.336Z,94.60
2022-08-10T06:15:21.359Z,94.60
2022-08-10T06:17:45.391Z,93.80
2022-08-10T06:20:18.472Z,93.90
2022-08-10T06:22:50.238Z,93.50
2022-08-10T06:26:08.202Z,93.30
2022-08-10T06:27:56.236Z,93.20
2022-08-10T06:30:29.613Z,92.50
2022-08-10T06:33:02.820Z,92.00
2022-08-10T06:35:35.807Z,91.60
2022-08-10T06:38:08.992Z,91.60
2022-08-10T06:40:43.483Z,90.60
2022-08-10T06:43:18.138Z,90.40
2022-08-10T06:46:06.748Z,90.20
2022-08-10T06:48:30.217Z,90.20
2022-08-10T06:51:05.008Z,90.00
2022-08-10T06:53:53.401Z,87.50
2022-08-10T06:56:14.307Z,87.20
2022-08-10T06:58:49.062Z,86.90
2022-08-10T07:01:23.403Z,87.20
2022-08-10T07:04:01.235Z,88.40
2022-08-10T07:06:34.053Z,88.10
2022-08-10T07:09:06.324Z,88.10
2022-08-10T07:11:38.738Z,88.70
2022-08-10T07:14:13.990Z,89.10
2022-08-10T07:16:48.389Z,89.60
2022-08-10T07:19:21.066Z,89.90
2022-08-10T07:21:57.881Z,90.40
2022-08-10T07:24:28.449Z,90.50
2022-08-10T07:27:01.582Z,90.70
2022-08-10T07:29:54.349Z,91.10
2022-08-10T07:32:09.075Z,91.80
2022-08-10T07:34:42.135Z,92.80
2022-08-10T07:37:15.430Z,94.30
2022-08-10T07:40:02.243Z,95.00
2022-08-10T07:42:25.072Z,95.80
2022-08-10T07:44:56.558Z,96.80
2022-08-10T07:47:52.522Z,97.30
2022-08-10T07:50:08.666Z,97.80
2022-08-10T07:52:41.432Z,98.50
2022-08-10T07:55:16.099Z,98.90
2022-08-10T07:57:50.523Z,98.20
2022-08-10T08:00:22.419Z,98.40
2022-08-10T08:02:56.280Z,97.70
2022-08-10T08:05:57.379Z,98.20
2022-08-10T08:08:06.290Z,98.40
2022-08-10T08:10:39.149Z,98.50
2022-08-10T08:13:11.538Z,98.70
2022-08-10T08:16:19.700Z,98.40
2022-08-10T08:18:25.302Z,98.70
2022-08-10T08:20:54.434Z,98.60
2022-08-10T08:24:05.690Z,98.40
2022-08-10T08:26:02.682Z,98.30
2022-08-10T08:28:35.999Z,98.50
2022-08-10T08:31:08.634Z,98.80
2022-08-10T08:33:42.886Z,98.80
2022-08-10T08:36:17.753Z,98.40
2022-08-10T08:38:50.222Z,97.70
2022-08-10T08:41:46.239Z,97.50
2022-08-10T08:44:21.745Z,97.40
2022-08-10T08:48:02.954Z,96.80
2022-08-10T08:50:08.262Z,97.50
2022-08-10T08:52:36.143Z,96.70
2022-08-10T08:55:52.359Z,96.40
2022-08-10T08:57:52.467Z,96.30
2022-08-10T09:00:28.326Z,96.10
2022-08-10T09:03:22.928Z,96.50
2022-08-10T09:05:58.350Z,96.90
2022-08-10T09:09:06.797Z,95.90
2022-08-10T09:11:45.730Z,95.80
2022-08-10T09:14:25.701Z,95.60
2022-08-10T09:16:59.512Z,95.40
2022-08-10T09:19:36.831Z,95.60
2022-08-10T09:22:18.721Z,95.10
2022-08-10T09:24:48.628Z,95.40
2022-08-10T09:27:23.752Z,95.20
2022-08-10T09:29:57.716Z,95.00
2022-08-10T09:36:16.202Z,95.20
2022-08-10T09:36:23.162Z,95.10
2022-08-10T09:38:02.552Z,95.50
2022-08-10T09:41:00.805Z,95.10
2022-08-10T09:43:24.976Z,94.70
2022-08-10T09:45:45.404Z,95.00
2022-08-10T09:48:22.270Z,94.80
2022-08-10T09:53:38.063Z,94.20
2022-08-10T09:56:21.365Z,94.20
2022-08-10T09:58:50.039Z,94.70
2022-08-10T10:02:02.836Z,94.50
2022-08-10T10:04:04.752Z,94.00
2022-08-10T10:06:39.874Z,94.60
2022-08-10T10:09:14.358Z,94.60
2022-08-10T10:11:50.897Z,95.10
2022-08-10T10:14:27.443Z,95.30
2022-08-10T10:17:03.840Z,95.30
2022-08-10T10:19:47.852Z,95.90
2022-08-10T10:22:26.962Z,95.50
2022-08-10T10:25:02.741Z,95.90
2022-08-10T10:27:40.600Z,96.00
2022-08-10T10:30:14.254Z,96.40
2022-08-10T10:32:54.562Z,96.90
2022-08-10T10:35:27.899Z,96.80
2022-08-10T10:38:01.201Z,96.20
2022-08-10T10:40:41.435Z,96.10
2022-08-10T10:43:29.007Z,96.60
2022-08-10T10:46:06.525Z,96.60
2022-08-10T10:48:41.613Z,96.20
2022-08-10T10:51:19.134Z,96.00
2022-08-10T10:53:53.812Z,95.90
2022-08-10T10:56:30.467Z,96.20
2022-08-10T10:59:16.042Z,96.20
2022-08-10T11:01:43.735Z,96.10
2022-08-10T11:04:21.432Z,95.70
2022-08-10T11:07:00.276Z,95.70
2022-08-10T11:10:03.856Z,95.00
2022-08-10T11:12:13.962Z,95.30
2022-08-10T11:14:51.509Z,94.80
2022-08-10T11:17:27.371Z,94.80
2022-08-10T11:20:04.287Z,95.20
2022-08-10T11:22:40.359Z,95.20
2022-08-10T11:25:16.194Z,94.90
2022-08-10T11:27:50.945Z,94.70
2022-08-10T11:30:25.260Z,94.60
2022-08-10T11:33:07.340Z,95.20
2022-08-10T11:35:43.780Z,95.20
2022-08-10T11:38:31.163Z,95.20
2022-08-10T11:40:56.563Z,94.90
2022-08-10T11:43:29.867Z,95.10
2022-08-10T11:46:08.077Z,95.00
2022-08-10T11:48:54.904Z,95.30
2022-08-10T11:51:20.423Z,94.90
2022-08-10T11:53:54.980Z,94.60
2022-08-10T11:56:30.916Z,95.00
2022-08-10T11:59:19.645Z,94.20
2022-08-10T12:01:54.065Z,94.60
2022-08-10T12:04:26.936Z,94.70
2022-08-10T12:07:00.460Z,93.80
2022-08-10T12:10:09.041Z,93.80
2022-08-10T12:12:08.690Z,93.90
2022-08-10T12:14:44.270Z,94.20
2022-08-10T12:17:19.316Z,94.30
2022-08-10T12:19:59.921Z,95.10
2022-08-10T12:22:34.323Z,94.90
2022-08-10T12:25:10.353Z,94.20
2022-08-10T12:27:44.846Z,94.80
2022-08-10T12:30:17.783Z,94.50
2022-08-10T12:32:54.468Z,94.80
2022-08-10T12:35:28.819Z,94.10
2022-08-10T12:38:06.957Z,93.40
2022-08-10T12:40:43.571Z,94.00
2022-08-10T12:44:06.393Z,93.60
2022-08-10T12:45:57.553Z,93.80
2022-08-10T12:48:33.303Z,93.80
2022-08-10T12:51:08.113Z,93.50
2022-08-10T12:53:47.948Z,93.40
2022-08-10T12:56:25.706Z,93.20
2022-08-10T12:59:01.352Z,92.90
2022-08-10T13:02:07.808Z,92.10
2022-08-10T13:04:22.527Z,91.30
2022-08-10T13:06:46.138Z,91.60
2022-08-10T13:09:19.414Z,91.90
2022-08-10T13:12:38.680Z,92.00
2022-08-10T13:14:30.638Z,91.50
2022-08-10T13:17:04.259Z,91.70
2022-08-10T13:19:55.090Z,91.00
2022-08-10T13:22:13.746Z,90.90
2022-08-10T13:24:48.512Z,90.60
2022-08-10T13:28:01.042Z,90.90
2022-08-10T13:30:04.267Z,90.50
2022-08-10T13:32:38.399Z,90.40
2022-08-10T13:35:13.466Z,90.40
2022-08-10T13:37:47.819Z,90.80
2022-08-10T13:40:21.502Z,90.70
2022-08-10T13:42:54.435Z,90.80
2022-08-10T13:45:28.794Z,90.60
2022-08-10T13:48:14.175Z,90.20
2022-08-10T13:50:47.278Z,90.00
2022-08-10T13:53:20.145Z,90.10
2022-08-10T13:55:56.487Z,89.60
2022-08-10T13:58:30.386Z,89.30
2022-08-10T14:01:03.934Z,88.60
2022-08-10T14:03:39.843Z,88.40
2022-08-10T14:06:14.305Z,88.90
2022-08-10T14:08:51.425Z,88.90
2022-08-10T14:11:23.962Z,87.70
2022-08-10T14:13:58.336Z,88.70
2022-08-10T14:16:31.036Z,88.00
2022-08-10T14:19:06.133Z,87.20
2022-08-10T14:21:41.956Z,87.40
2022-08-10T14:24:25.417Z,88.00
2022-08-10T14:27:02.438Z,86.60
2022-08-10T14:29:37.170Z,87.10
2022-08-10T14:32:11.345Z,86.60
2022-08-10T14:36:15.433Z,86.90
2022-08-10T14:37:21.192Z,86.90
2022-08-10T14:39:57.203Z,85.90
2022-08-10T14:42:32.563Z,85.90
2022-08-10T14:45:07.075Z,85.20
2022-08-10T14:47:51.578Z,85.00
2022-08-10T14:50:32.387Z,85.80
2022-08-10T14:52:52.331Z,85.20
2022-08-10T14:55:26.347Z,85.20
2022-08-10T14:58:17.232Z,84.70
2022-08-10T15:00:42.820Z,84.30
2022-08-10T15:03:58.507Z,84.90
2022-08-10T15:05:50.602Z,85.40
2022-08-10T15:08:24.533Z,84.40
2022-08-10T15:10:59.618Z,83.50
2022-08-10T15:13:34.841Z,84.00
2022-08-10T15:16:12.983Z,85.50
2022-08-10T15:18:58.037Z,84.30
2022-08-10T15:21:25.840Z,84.00
2022-08-10T15:24:05.429Z,84.30
2022-08-10T15:26:32.014Z,84.20
2022-08-10T15:29:22.758Z,85.00
2022-08-10T15:31:44.670Z,84.50
2022-08-10T15:34:33.003Z,84.60
2022-08-10T15:37:39.502Z,84.60
2022-08-10T15:40:25.617Z,84.40
2022-08-10T15:42:25.585Z,83.20
2022-08-10T15:44:56.972Z,84.00
2022-08-10T15:47:44.806Z,84.30
2022-08-10T15:50:09.611Z,84.50
2022-08-10T15:53:01.158Z,84.80
2022-08-10T15:55:42.717Z,83.80
2022-08-10T15:58:01.927Z,83.60
2022-08-10T16:00:36.666Z,84.60
2022-08-10T16:03:13.340Z,85.60
2022-08-10T16:06:02.421Z,84.20
2022-08-10T16:08:24.254Z,84.90
2022-08-10T16:11:00.044Z,84.10
2022-08-10T16:13:59.374Z,83.30
2022-08-10T16:16:10.599Z,83.50
2022-08-10T16:18:44.772Z,82.60
2022-08-10T16:21:19.638Z,83.40
2022-08-10T16:24:13.120Z,81.60
2022-08-10T16:26:32.447Z,83.60
2022-08-10T16:29:06.251Z,83.00
2022-08-10T16:31:40.794Z,83.00
2022-08-10T16:34:15.803Z,83.40
2022-08-10T16:36:50.840Z,83.20
2022-08-10T16:39:57.174Z,82.20
2022-08-10T16:42:04.593Z,81.50
2022-08-10T16:44:38.206Z,83.90
2022-08-10T16:47:12.286Z,82.30
2022-08-10T16:49:46.383Z,82.70
2022-08-10T16:52:18.792Z,82.60
2022-08-10T16:54:52.952Z,83.30
2022-08-10T16:57:25.905Z,82.00
2022-08-10T16:59:58.865Z,82.80
2022-08-10T17:02:33.067Z,81.90
2022-08-10T17:05:06.839Z,82.00
2022-08-10T17:07:41.519Z,81.70
2022-08-10T17:10:16.185Z,82.50
2022-08-10T17:12:50.774Z,82.40
2022-08-10T17:15:25.215Z,81.90
2022-08-10T17:17:59.773Z,81.90
2022-08-10T17:20:34.785Z,82.60
2022-08-10T17:23:09.319Z,81.60
2022-08-10T17:25:46.078Z,81.90
2022-08-10T17:28:34.782Z,81.80
2022-08-10T17:30:57.842Z,82.90
2022-08-10T17:33:30.482Z,81.30
2022-08-10T17:36:05.746Z,81.60
2022-08-10T17:38:38.729Z,81.70
2022-08-10T17:41:13.502Z,81.70
2022-08-10T17:44:01.890Z,82.00
2022-08-10T17:46:20.121Z,83.00
2022-08-10T17:48:54.019Z,82.30
2022-08-10T17:51:30.711Z,82.30
2022-08-10T17:54:01.362Z,82.40
2022-08-10T17:56:35.361Z,82.80
2022-08-10T17:59:15.175Z,83.70
2022-08-10T18:02:01.723Z,84.00
2022-08-10T18:04:22.081Z,84.10
2022-08-10T18:06:57.200Z,83.90
2022-08-10T18:09:33.813Z,84.50
2022-08-10T18:12:17.487Z,85.10
2022-08-10T18:14:46.275Z,85.20
2022-08-10T18:17:21.251Z,84.80
2022-08-10T18:19:56.910Z,85.10
2022-08-10T18:22:29.960Z,85.40
2022-08-10T18:25:02.172Z,85.60
2022-08-10T18:28:01.014Z,86.30
2022-08-10T18:30:10.973Z,86.80
2022-08-10T18:32:45.058Z,87.30
2022-08-10T18:35:18.734Z,88.10
2022-08-10T18:37:53.257Z,89.00
2022-08-10T18:40:35.658Z,90.00
2022-08-10T18:42:59.471Z,90.00
2022-08-10T18:45:34.295Z,90.50
2022-08-10T18:48:11.225Z,91.50
2022-08-10T18:50:47.378Z,91.30
2022-08-10T18:53:22.869Z,91.10
2022-08-10T18:56:08.666Z,90.80
2022-08-10T18:59:02.852Z,91.20
2022-08-10T19:01:45.973Z,92.40
2022-08-10T19:04:27.493Z,92.80
2022-08-10T19:07:08.120Z,93.20
2022-08-10T19:09:59.529Z,93.10
2022-08-10T19:12:47.917Z,93.50
2022-08-10T19:15:29.069Z,94.20
2022-08-10T19:18:17.028Z,94.40
2022-08-10T19:20:52.516Z,94.70
2022-08-10T19:23:46.891Z,95.00
2022-08-10T19:26:42.050Z,95.40
2022-08-10T19:29:16.473Z,95.10
2022-08-10T19:31:53.085Z,95.20
2022-08-10T19:34:31.867Z,95.20
2022-08-10T19:37:07.549Z,95.70
2022-08-10T19:39:50.837Z,95.70
2022-08-10T19:42:31.602Z,96.20
2022-08-10T19:45:01.223Z,96.40
2022-08-10T19:47:37.312Z,96.40
2022-08-10T19:50:12.604Z,96.50
2022-08-10T19:52:47.663Z,96.40
2022-08-10T19:55:23.814Z,96.70
2022-08-10T19:57:58.253Z,97.30
2022-08-10T20:00:33.114Z,97.10
2022-08-10T20:03:12.429Z,97.20
2022-08-10T20:06:19.446Z,97.20
2022-08-10T20:08:28.093Z,97.50
2022-08-10T20:11:01.646Z,97.40
2022-08-10T20:13:37.026Z,97.80
2022-08-10T20:16:12.271Z,97.60
2022-08-10T20:18:47.036Z,97.80
2022-08-10T20:21:22.888Z,98.00
2022-08-10T20:23:57.851Z,97.90
2022-08-10T20:26:33.098Z,98.10
2022-08-10T20:29:10.199Z,98.50
2022-08-10T20:31:46.560Z,98.50
2022-08-10T20:34:21.472Z,98.50
2022-08-10T20:36:59.043Z,98.90
2022-08-10T20:39:43.891Z,98.90
2022-08-10T20:42:19.171Z,98.90
2022-08-10T20:44:59.001Z,99.10
2022-08-10T20:47:42.559Z,99.00
2022-08-10T20:50:18.910Z,99.50
2022-08-10T20:52:52.668Z,99.60
2022-08-10T20:55:27.254Z,99.70
2022-08-10T20:58:28.671Z,99.40
2022-08-10T21:01:04.935Z,99.70
2022-08-10T21:04:03.285Z,99.90
2022-08-10T21:06:44.072Z,99.90
2022-08-10T21:09:30.503Z,99.90
2022-08-10T21:12:15.643Z,99.90
2022-08-10T21:14:49.107Z,99.90
2022-08-10T21:17:32.253Z,99.90
2022-08-10T21:20:12.419Z,99.90
2022-08-10T21:22:47.189Z,99.90
2022-08-10T21:25:29.444Z,99.90
2022-08-10T21:28:07.807Z,99.90
2022-08-10T21:30:55.494Z,99.90
2022-08-10T21:33:31.482Z,99.90
2022-08-10T21:36:09.879Z,99.90
2022-08-10T21:38:49.269Z,99.90
2022-08-10T21:41:57.902Z,99.90
2022-08-10T21:44:41.378Z,99.90
2022-08-10T21:47:41.768Z,99.90
2022-08-10T21:50:29.674Z,99.90
2022-08-10T21:53:21.874Z,99.90
2022-08-10T21:56:16.064Z,99.90
2022-08-10T21:59:09.985Z,99.90
2022-08-10T22:02:02.545Z,99.90
2022-08-10T22:04:54.037Z,99.90
2022-08-10T22:07:47.964Z,99.90
2022-08-10T22:10:40.330Z,99.90
2022-08-10T22:13:34.425Z,99.90
2022-08-10T22:16:27.661Z,99.90
2022-08-10T22:19:19.790Z,99.90
2022-08-10T22:22:27.426Z,99.90
2022-08-10T22:25:27.565Z,99.90
2022-08-10T22:28:18.868Z,99.90
2022-08-10T22:31:30.946Z,99.90
2022-08-10T22:34:10.108Z,99.90
2022-08-10T22:37:11.947Z,99.90
2022-08-10T22:40:13.955Z,99.90
2022-08-10T22:43:10.631Z,99.90
2022-08-10T22:46:04.246Z,99.90
2022-08-10T22:49:02.535Z,99.90
2022-08-10T22:51:50.881Z,99.90
2022-08-10T22:54:46.926Z,99.90
2022-08-10T22:57:38.582Z,99.90
2022-08-10T23:00:31.247Z,99.90
2022-08-10T23:03:01.991Z,99.90
2022-08-10T23:05:36.203Z,99.90
2022-08-10T23:08:11.688Z,99.90
2022-08-10T23:10:47.312Z,99.90
2022-08-10T23:13:23.526Z,99.90
2022-08-10T23:16:16.321Z,99.90
2022-08-10T23:19:08.160Z,99.90
2022-08-10T23:22:03.712Z,99.90
2022-08-10T23:24:26.128Z,99.90
2022-08-10T23:27:09.122Z,99.90
2022-08-10T23:29:35.177Z,99.90
2022-08-10T23:32:09.896Z,99.90
2022-08-10T23:34:45.324Z,99.90
2022-08-10T23:37:19.412Z,99.90
2022-08-10T23:39:52.606Z,99.90
2022-08-10T23:42:25.095Z,99.90
2022-08-10T23:44:59.265Z,99.90
2022-08-10T23:47:31.958Z,99.90
2022-08-10T23:50:05.559Z,99.90
2022-08-10T23:52:38.469Z,99.90
2022-08-10T23:55:13.953Z,99.90
2022-08-10T23:57:47.999Z,99.90
